Time;durP1;ratioP1;P1;durP2;ratioP2;P2;SDS_P1;SDS_P2;PMS_P1;PMS_P2;Temp;Humidity;BMP_temperature;BMP_pressure;BME280_temperature;BME280_humidity;BME280_pressure;Samples;Min_cycle;Max_cycle;Signal;HPM_P1;HPM_P2
2023/09/06 00:00:12;;;;;;;5.47;4.00;;;19.10;99.90;;;;;;7381026;19;20018;-62
2023/09/06 00:02:42;;;;;;;4.78;4.22;;;19.10;99.90;;;;;;7376483;19;20025;-61
2023/09/06 00:05:08;;;;;;;5.70;3.75;;;19.10;99.90;;;;;;7379929;19;20022;-61
2023/09/06 00:07:34;;;;;;;7.10;3.80;;;19.00;99.90;;;;;;7374172;19;20474;-61
2023/09/06 00:10:00;;;;;;;7.65;3.42;;;18.90;99.90;;;;;;7376204;19;20014;-62
2023/09/06 00:12:27;;;;;;;4.90;3.65;;;18.90;99.90;;;;;;7371702;19;20038;-61
2023/09/06 00:14:55;;;;;;;5.47;4.43;;;18.90;99.90;;;;;;7373874;19;20085;-61
2023/09/06 00:17:21;;;;;;;8.68;4.05;;;18.80;99.90;;;;;;7374153;19;20617;-62
2023/09/06 00:20:20;;;;;;;6.82;3.60;;;18.70;99.90;;;;;;7375303;19;20018;-61
2023/09/06 00:22:58;;;;;;;5.35;3.95;;;18.70;99.90;;;;;;7376895;19;20028;-61
2023/09/06 00:25:25;;;;;;;4.80;3.58;;;18.60;99.90;;;;;;7368395;19;20362;-61
2023/09/06 00:27:52;;;;;;;5.93;3.75;;;18.60;99.90;;;;;;7373935;19;20010;-62
2023/09/06 00:30:19;;;;;;;5.07;3.63;;;18.50;99.90;;;;;;7373313;19;20039;-61
2023/09/06 00:32:46;;;;;;;4.72;3.38;;;18.50;99.90;;;;;;7375286;19;20600;-61
2023/09/06 00:35:13;;;;;;;4.55;3.83;;;18.30;99.90;;;;;;7372346;19;20034;-61
2023/09/06 00:38:05;;;;;;;5.18;3.80;;;18.30;99.90;;;;;;7370853;19;20041;-61
2023/09/06 00:40:36;;;;;;;5.00;3.63;;;18.20;99.90;;;;;;7373452;19;20026;-61
2023/09/06 00:43:03;;;;;;;4.65;3.85;;;18.20;99.90;;;;;;7374518;19;20125;-67
2023/09/06 00:45:44;;;;;;;4.28;3.63;;;18.10;99.90;;;;;;7374255;19;20533;-69
2023/09/06 00:48:17;;;;;;;;;;;18.00;99.90;;;;;;7376601;19;20014;-61
2023/09/06 00:51:06;;;;;;;6.28;4.28;;;18.00;99.90;;;;;;7374023;19;19919;-61
2023/09/06 00:53:33;;;;;;;5.35;3.65;;;17.90;99.90;;;;;;7372984;19;20022;-62
2023/09/06 00:56:03;;;;;;;5.45;4.10;;;17.90;99.90;;;;;;7375015;19;20014;-61
2023/09/06 00:58:30;;;;;;;7.15;3.55;;;17.90;99.90;;;;;;7375697;19;20626;-68
2023/09/06 01:01:16;;;;;;;5.57;3.80;;;17.80;99.90;;;;;;7377097;19;20120;-68
2023/09/06 01:03:43;;;;;;;6.18;4.25;;;17.70;99.90;;;;;;7375588;19;20462;-68
2023/09/06 01:06:25;;;;;;;6.32;3.58;;;17.70;99.90;;;;;;7373499;19;20133;-68
2023/09/06 01:08:59;;;;;;;7.00;5.35;;;17.60;99.90;;;;;;7375715;19;20562;-69
2023/09/06 01:11:28;;;;;;;8.93;4.88;;;17.70;99.90;;;;;;7375840;19;20032;-68
2023/09/06 01:13:59;;;;;;;6.22;4.22;;;17.80;99.90;;;;;;7376886;19;20014;-69
2023/09/06 01:16:44;;;;;;;7.28;4.20;;;17.80;99.90;;;;;;7373527;19;21279;-61
2023/09/06 01:19:12;;;;;;;6.63;4.20;;;17.80;99.90;;;;;;7373304;19;20011;-61
2023/09/06 01:22:01;;;;;;;7.05;3.97;;;17.80;99.90;;;;;;7369531;19;20018;-62
2023/09/06 01:24:29;;;;;;;9.82;4.25;;;17.80;99.90;;;;;;7373693;19;20014;-61
2023/09/06 01:26:57;;;;;;;5.68;4.05;;;17.80;99.90;;;;;;7371382;19;20053;-61
2023/09/06 01:29:23;;;;;;;5.97;3.92;;;17.90;99.90;;;;;;7375587;19;20019;-61
2023/09/06 01:31:50;;;;;;;5.80;4.57;;;17.90;99.90;;;;;;7370870;19;20057;-61
2023/09/06 01:34:16;;;;;;;6.57;4.35;;;17.80;99.90;;;;;;7373838;19;20681;-60
2023/09/06 01:36:43;;;;;;;5.13;3.88;;;17.80;99.90;;;;;;7371081;19;20442;-61
2023/09/06 01:39:09;;;;;;;6.18;4.30;;;17.80;99.90;;;;;;7374191;19;20048;-62
2023/09/06 01:41:36;;;;;;;5.70;4.03;;;17.80;99.90;;;;;;7372226;19;20028;-61
2023/09/06 01:44:02;;;;;;;8.82;4.47;;;17.90;99.90;;;;;;7373765;19;20046;-61
2023/09/06 01:46:30;;;;;;;7.28;4.63;;;17.90;99.90;;;;;;7370127;19;20018;-61
2023/09/06 01:48:59;;;;;;;6.22;4.68;;;17.90;99.90;;;;;;7374415;19;20594;-61
2023/09/06 01:51:26;;;;;;;6.75;4.50;;;17.80;99.90;;;;;;7364192;19;20022;-61
2023/09/06 01:53:52;;;;;;;6.32;4.32;;;17.80;99.90;;;;;;7372546;19;20538;-61
2023/09/06 01:56:19;;;;;;;6.30;3.95;;;17.80;99.90;;;;;;7369022;19;20018;-62
2023/09/06 01:58:46;;;;;;;7.30;4.28;;;17.80;99.90;;;;;;7372655;19;20025;-61
2023/09/06 02:01:12;;;;;;;6.40;4.60;;;17.80;99.90;;;;;;7370263;19;20457;-61
2023/09/06 02:03:39;;;;;;;7.32;4.88;;;17.70;99.90;;;;;;7373781;19;20512;-61
2023/09/06 02:06:05;;;;;;;6.45;4.70;;;17.70;99.90;;;;;;7370743;19;20133;-62
2023/09/06 02:08:32;;;;;;;6.38;4.53;;;17.70;99.90;;;;;;7368755;19;20331;-61
2023/09/06 02:10:58;;;;;;;7.63;4.80;;;17.80;99.90;;;;;;7370681;19;20023;-61
2023/09/06 02:13:25;;;;;;;6.95;4.95;;;17.70;99.90;;;;;;7369743;19;20034;-60
2023/09/06 02:16:12;;;;;;;7.68;5.05;;;17.70;99.90;;;;;;7367793;19;20014;-61
2023/09/06 02:18:38;;;;;;;5.70;4.50;;;17.70;99.90;;;;;;7373965;19;20018;-61
2023/09/06 02:21:04;;;;;;;4.97;4.20;;;17.70;99.90;;;;;;7369287;19;20041;-61
2023/09/06 02:23:30;;;;;;;7.18;5.10;;;17.60;99.90;;;;;;7371993;19;20517;-61
2023/09/06 02:25:57;;;;;;;9.43;5.22;;;17.60;99.90;;;;;;7369270;19;20090;-62
2023/09/06 02:28:25;;;;;;;7.43;4.90;;;17.50;99.90;;;;;;7372825;19;20035;-62
2023/09/06 02:30:51;;;;;;;5.40;4.65;;;17.50;99.90;;;;;;7372491;19;20019;-61
2023/09/06 02:33:18;;;;;;;6.00;4.75;;;17.60;99.90;;;;;;7364346;19;20504;-60
2023/09/06 02:36:04;;;;;;;5.47;4.55;;;17.50;99.90;;;;;;7367244;19;20015;-61
2023/09/06 02:38:30;;;;;;;5.88;4.65;;;17.50;99.90;;;;;;7368297;19;20761;-61
2023/09/06 02:40:57;;;;;;;7.38;5.00;;;17.40;99.90;;;;;;7371787;19;20043;-61
2023/09/06 02:43:43;;;;;;;8.23;4.90;;;17.40;99.90;;;;;;7371025;19;20620;-61
2023/09/06 02:46:10;;;;;;;6.35;4.72;;;17.30;99.90;;;;;;7370383;19;20048;-61
2023/09/06 02:48:38;;;;;;;8.07;5.38;;;17.40;99.90;;;;;;7370980;19;20033;-61
2023/09/06 02:51:08;;;;;;;6.68;4.50;;;17.40;99.90;;;;;;7371839;19;20533;-62
2023/09/06 02:53:34;;;;;;;6.18;4.50;;;17.40;99.90;;;;;;7366106;19;20034;-61
2023/09/06 02:56:01;;;;;;;5.43;4.65;;;17.30;99.90;;;;;;7369743;19;20739;-62
2023/09/06 02:58:28;;;;;;;7.38;4.68;;;17.20;99.90;;;;;;7360225;19;20029;-61
2023/09/06 03:01:19;;;;;;;5.70;4.47;;;17.30;99.90;;;;;;7367390;19;20026;-62
2023/09/06 03:03:53;;;;;;;6.00;4.68;;;17.20;99.90;;;;;;7365303;19;20037;-61
2023/09/06 03:06:43;;;;;;;6.03;4.93;;;17.10;99.90;;;;;;7365160;19;20010;-61
2023/09/06 03:09:10;;;;;;;5.47;4.05;;;17.10;99.90;;;;;;7365815;19;20018;-61
2023/09/06 03:11:38;;;;;;;7.75;5.65;;;17.10;99.90;;;;;;7364843;19;20018;-69
2023/09/06 03:14:04;;;;;;;6.00;5.40;;;17.10;99.90;;;;;;7370343;19;20660;-62
2023/09/06 03:16:38;;;;;;;7.43;5.00;;;17.00;99.90;;;;;;7363223;19;20082;-68
2023/09/06 03:19:09;;;;;;;7.13;5.25;;;17.10;99.90;;;;;;7368738;19;20022;-61
2023/09/06 03:21:37;;;;;;;7.00;5.72;;;17.10;99.90;;;;;;7365345;19;20027;-68
2023/09/06 03:24:12;;;;;;;6.03;5.35;;;17.10;99.90;;;;;;7367311;19;20453;-61
2023/09/06 03:26:43;;;;;;;7.32;5.45;;;17.10;99.90;;;;;;7365536;19;20486;-62
2023/09/06 03:29:10;;;;;;;7.43;4.82;;;17.00;99.90;;;;;;7367942;19;20553;-62
2023/09/06 03:31:42;;;;;;;6.80;4.85;;;17.00;99.90;;;;;;7364636;19;20019;-62
2023/09/06 03:34:15;;;;;;;6.63;5.32;;;16.90;99.90;;;;;;7366137;19;20062;-61
2023/09/06 03:36:46;;;;;;;6.72;6.03;;;16.90;99.90;;;;;;7366000;19;20498;-63
2023/09/06 03:39:14;;;;;;;6.38;5.22;;;16.80;99.90;;;;;;7366033;19;20033;-62
2023/09/06 03:41:41;;;;;;;6.50;5.43;;;16.80;99.90;;;;;;7367745;19;20041;-62
2023/09/06 03:44:08;;;;;;;5.43;4.93;;;16.80;99.90;;;;;;7365793;19;20785;-61
2023/09/06 03:46:35;;;;;;;7.63;5.57;;;16.70;99.90;;;;;;7363712;19;20018;-61
2023/09/06 03:49:06;;;;;;;7.07;5.95;;;16.70;99.90;;;;;;7365682;19;20620;-61
2023/09/06 03:51:35;;;;;;;6.20;5.40;;;16.70;99.90;;;;;;7365312;19;20018;-61
2023/09/06 03:54:06;;;;;;;6.60;5.35;;;16.70;99.90;;;;;;7359894;19;20934;-61
2023/09/06 03:56:32;;;;;;;7.82;5.43;;;16.60;99.90;;;;;;7365631;19;20078;-61
2023/09/06 03:59:00;;;;;;;7.03;5.65;;;16.60;99.90;;;;;;7363996;19;20018;-61
2023/09/06 04:01:27;;;;;;;6.80;5.88;;;16.60;99.90;;;;;;7363079;19;20011;-61
2023/09/06 04:03:54;;;;;;;6.22;5.57;;;16.60;99.90;;;;;;7363126;19;20022;-60
2023/09/06 04:06:21;;;;;;;8.60;5.25;;;16.50;99.90;;;;;;7367116;19;20019;-61
2023/09/06 04:09:12;;;;;;;7.43;6.07;;;16.60;99.90;;;;;;7361634;19;20024;-60
2023/09/06 04:11:42;;;;;;;;;;;16.50;99.90;;;;;;7365154;19;20852;-61
2023/09/06 04:14:08;;;;;;;6.68;5.97;;;16.50;99.90;;;;;;7365820;19;19923;-60
2023/09/06 04:16:37;;;;;;;7.47;5.32;;;16.40;99.90;;;;;;7361194;19;20041;-60
2023/09/06 04:19:07;;;;;;;6.53;5.32;;;16.40;99.90;;;;;;7364503;19;20915;-60
2023/09/06 04:21:33;;;;;;;6.57;5.85;;;16.40;99.90;;;;;;7360016;19;20025;-62
2023/09/06 04:24:00;;;;;;;6.47;5.65;;;16.30;99.90;;;;;;7364389;19;20118;-62
2023/09/06 04:26:27;;;;;;;9.38;6.00;;;16.30;99.90;;;;;;7362245;19;20019;-61
2023/09/06 04:28:56;;;;;;;8.00;6.70;;;16.30;99.90;;;;;;7365644;19;20033;-62
2023/09/06 04:31:24;;;;;;;6.47;5.65;;;16.20;99.90;;;;;;7363030;19;20023;-63
2023/09/06 04:33:50;;;;;;;8.57;5.95;;;16.20;99.90;;;;;;7367794;19;20014;-61
2023/09/06 04:36:42;;;;;;;7.15;6.30;;;16.20;99.90;;;;;;7371713;19;20029;-61
2023/09/06 04:39:30;;;;;;;8.60;5.65;;;16.20;99.90;;;;;;7373553;19;20018;-60
2023/09/06 04:42:00;;;;;;;8.80;6.38;;;16.20;99.90;;;;;;7371821;19;20011;-60
2023/09/06 04:44:28;;;;;;;7.38;5.65;;;16.10;99.90;;;;;;7370825;19;20018;-62
2023/09/06 04:46:55;;;;;;;7.85;5.90;;;16.10;99.90;;;;;;7369254;19;20022;-61
2023/09/06 04:49:45;;;;;;;6.45;5.85;;;16.10;99.90;;;;;;7369791;19;20019;-61
2023/09/06 04:52:12;;;;;;;11.18;6.35;;;16.10;99.90;;;;;;7372619;19;20093;-61
2023/09/06 04:54:38;;;;;;;7.35;6.65;;;16.10;99.90;;;;;;7368174;19;20059;-62
2023/09/06 04:57:05;;;;;;;10.80;6.47;;;16.00;99.90;;;;;;7374725;19;20030;-59
2023/09/06 04:59:36;;;;;;;7.65;6.20;;;16.00;99.90;;;;;;7366383;19;20872;-61
2023/09/06 05:02:03;;;;;;;9.35;6.45;;;16.00;99.90;;;;;;7373571;19;20022;-61
2023/09/06 05:04:30;;;;;;;7.72;6.25;;;16.00;99.90;;;;;;7366959;19;20462;-61
2023/09/06 05:06:56;;;;;;;10.57;6.50;;;16.00;99.90;;;;;;7373471;19;20030;-61
2023/09/06 05:09:23;;;;;;;7.38;6.57;;;16.00;99.90;;;;;;7365438;19;20018;-61
2023/09/06 05:11:49;;;;;;;6.97;5.80;;;16.00;99.90;;;;;;7369557;19;20015;-60
2023/09/06 05:14:16;;;;;;;7.50;6.50;;;16.00;99.90;;;;;;7368797;19;20344;-60
2023/09/06 05:16:42;;;;;;;7.65;6.03;;;16.00;99.90;;;;;;7375397;19;20035;-70
2023/09/06 05:19:08;;;;;;;8.15;6.85;;;16.00;99.90;;;;;;7380958;19;20022;-69
2023/09/06 05:21:37;;;;;;;7.95;6.72;;;16.10;99.90;;;;;;7369597;19;20034;-61
2023/09/06 05:24:04;;;;;;;8.80;7.25;;;16.10;99.90;;;;;;7368085;19;21840;-60
2023/09/06 05:26:33;;;;;;;9.70;7.15;;;16.10;99.90;;;;;;7369412;19;20042;-61
2023/09/06 05:29:19;;;;;;;9.18;6.35;;;16.10;99.90;;;;;;7369398;19;20018;-60
2023/09/06 05:31:47;;;;;;;8.50;7.35;;;16.20;99.90;;;;;;7397309;19;20035;-70
2023/09/06 05:34:13;;;;;;;9.60;7.40;;;16.30;99.90;;;;;;7401341;19;19998;-68
2023/09/06 05:37:04;;;;;;;8.40;7.13;;;16.40;99.90;;;;;;7398689;19;20011;-69
2023/09/06 05:39:32;;;;;;;7.95;7.18;;;16.50;99.90;;;;;;7396961;19;20496;-70
2023/09/06 05:42:00;;;;;;;10.93;9.45;;;16.60;99.90;;;;;;7383800;19;20026;-64
2023/09/06 05:44:27;;;;;;;12.07;9.02;;;16.80;99.90;;;;;;7370214;19;20022;-70
2023/09/06 05:46:53;;;;;;;25.27;22.75;;;17.10;99.90;;;;;;7374818;19;20022;-72
2023/09/06 05:49:21;;;;;;;10.75;8.63;;;17.40;99.90;;;;;;7370385;19;20500;-72
2023/09/06 05:51:47;;;;;;;11.10;8.93;;;17.50;99.90;;;;;;7370777;19;20258;-69
2023/09/06 05:54:14;;;;;;;14.38;10.73;;;17.70;99.90;;;;;;7369810;19;20019;-72
2023/09/06 05:56:43;;;;;;;14.32;9.68;;;17.90;99.90;;;;;;7369717;19;20018;-72
2023/09/06 05:59:13;;;;;;;9.55;8.45;;;18.10;99.90;;;;;;7369151;19;20506;-73
2023/09/06 06:01:41;;;;;;;11.25;8.27;;;18.30;99.90;;;;;;7369023;19;20490;-72
2023/09/06 06:04:07;;;;;;;10.48;7.25;;;18.50;99.90;;;;;;7368397;19;20028;-72
2023/09/06 06:06:34;;;;;;;11.85;9.85;;;18.60;99.90;;;;;;7367665;19;20019;-73
2023/09/06 06:09:01;;;;;;;8.23;7.13;;;18.80;99.90;;;;;;7373239;19;20064;-70
2023/09/06 06:11:27;;;;;;;14.25;12.27;;;18.90;99.90;;;;;;7372132;19;20116;-70
2023/09/06 06:13:54;;;;;;;8.63;5.50;;;19.00;99.90;;;;;;7374756;19;20018;-70
2023/09/06 06:16:20;;;;;;;6.15;4.97;;;19.10;99.90;;;;;;7372097;19;20420;-68
2023/09/06 06:18:48;;;;;;;29.35;26.33;;;19.30;99.90;;;;;;7368768;19;20414;-75
2023/09/06 06:21:17;;;;;;;12.20;10.35;;;19.50;99.90;;;;;;7369650;19;20073;-75
2023/09/06 06:23:46;;;;;;;13.25;11.45;;;19.50;99.90;;;;;;7368611;19;20102;-75
2023/09/06 06:26:15;;;;;;;7.32;5.40;;;19.70;99.90;;;;;;7374242;19;20525;-71
2023/09/06 06:28:41;;;;;;;8.23;6.82;;;19.80;99.90;;;;;;7376638;19;20017;-70
2023/09/06 06:31:07;;;;;;;7.22;5.68;;;19.90;99.90;;;;;;7370264;19;20011;-67
2023/09/06 06:33:35;;;;;;;8.90;6.65;;;20.20;99.90;;;;;;7368236;19;20447;-69
2023/09/06 06:36:01;;;;;;;9.70;6.13;;;20.40;99.90;;;;;;7368676;19;20031;-68
2023/09/06 06:38:28;;;;;;;9.35;5.43;;;20.70;99.90;;;;;;7367861;19;20537;-71
2023/09/06 06:40:54;;;;;;;8.40;5.28;;;20.90;99.90;;;;;;7368978;19;20014;-70
2023/09/06 06:43:20;;;;;;;8.23;4.70;;;20.90;99.90;;;;;;7363515;19;20029;-70
2023/09/06 06:45:55;;;;;;;6.30;4.35;;;21.00;99.90;;;;;;7366989;19;20021;-68
2023/09/06 06:48:21;;;;;;;6.55;4.57;;;21.10;99.90;;;;;;7364790;19;20069;-65
2023/09/06 06:50:49;;;;;;;5.72;5.13;;;21.20;99.90;;;;;;7369569;19;20398;-64
2023/09/06 06:53:15;;;;;;;5.57;4.18;;;21.30;99.90;;;;;;7363751;19;20382;-59
2023/09/06 06:55:42;;;;;;;5.35;4.22;;;21.60;99.90;;;;;;7364563;19;20387;-60
2023/09/06 06:58:08;;;;;;;5.07;4.40;;;21.80;99.90;;;;;;7364026;19;20101;-59
2023/09/06 07:00:35;;;;;;;6.40;4.95;;;22.10;99.90;;;;;;7362922;19;20676;-59
2023/09/06 07:03:03;;;;;;;8.80;4.45;;;22.20;99.90;;;;;;7367531;19;20025;-59
2023/09/06 07:05:30;;;;;;;6.32;4.00;;;22.40;99.90;;;;;;7363913;19;20662;-59
2023/09/06 07:07:56;;;;;;;5.25;4.32;;;22.80;99.90;;;;;;7368194;19;20593;-60
2023/09/06 07:10:22;;;;;;;6.72;4.30;;;23.10;99.90;;;;;;7365342;19;20461;-60
2023/09/06 07:12:48;;;;;;;6.25;4.63;;;23.30;99.90;;;;;;7363832;19;20083;-60
2023/09/06 07:15:15;;;;;;;4.53;4.10;;;23.60;99.90;;;;;;7362878;19;20358;-61
2023/09/06 07:17:42;;;;;;;5.03;3.58;;;24.00;99.90;;;;;;7363860;19;20022;-58
2023/09/06 07:20:09;;;;;;;5.30;4.13;;;24.30;99.90;;;;;;7360778;19;20525;-58
2023/09/06 07:22:35;;;;;;;6.22;3.70;;;24.60;99.90;;;;;;7366282;19;20041;-59
2023/09/06 07:25:04;;;;;;;8.43;3.45;;;24.90;99.90;;;;;;7363602;19;20031;-58
2023/09/06 07:27:30;;;;;;;7.10;3.95;;;25.10;99.90;;;;;;7363502;19;20026;-59
2023/09/06 07:29:56;;;;;;;7.70;3.75;;;25.40;99.90;;;;;;7365496;19;20875;-59
2023/09/06 07:32:42;;;;;;;4.90;3.40;;;25.70;99.90;;;;;;7368224;19;20018;-59
2023/09/06 07:35:09;;;;;;;6.97;3.60;;;26.10;99.90;;;;;;7368015;19;20014;-60
2023/09/06 07:37:35;;;;;;;4.60;2.90;;;26.30;99.90;;;;;;7368206;19;20356;-59
2023/09/06 07:40:03;;;;;;;4.95;3.10;;;26.70;99.90;;;;;;7368848;19;20014;-59
2023/09/06 07:42:31;;;;;;;5.28;3.08;;;27.00;99.90;;;;;;7366171;19;20402;-59
2023/09/06 07:44:58;;;;;;;3.50;2.38;;;27.40;99.90;;;;;;7364661;19;20010;-59
2023/09/06 07:47:26;;;;;;;4.50;2.47;;;27.60;99.90;;;;;;7363986;19;20038;-59
2023/09/06 07:49:52;;;;;;;3.28;2.40;;;28.00;99.90;;;;;;7366045;19;20035;-59
2023/09/06 07:52:19;;;;;;;3.70;3.25;;;28.10;99.90;;;;;;7362092;19;20015;-59
2023/09/06 07:54:45;;;;;;;4.55;2.30;;;28.10;99.90;;;;;;7369921;19;20400;-60
2023/09/06 07:57:13;;;;;;;5.78;2.95;;;28.40;99.90;;;;;;7364301;19;20077;-59
2023/09/06 07:59:59;;;;;;;4.65;2.65;;;28.60;99.90;;;;;;7367887;19;20129;-59
2023/09/06 08:02:26;;;;;;;3.65;2.38;;;28.70;99.90;;;;;;7366001;19;20041;-59
2023/09/06 08:04:52;;;;;;;6.90;2.58;;;29.00;99.90;;;;;;7367488;19;20393;-58
2023/09/06 08:07:20;;;;;;;4.47;2.47;;;29.40;99.90;;;;;;7365964;19;20082;-58
2023/09/06 08:09:46;;;;;;;5.00;2.35;;;29.40;99.90;;;;;;7373470;19;20579;-58
2023/09/06 08:12:12;;;;;;;4.70;2.10;;;29.70;99.80;;;;;;7369136;19;20615;-59
2023/09/06 08:14:39;;;;;;;5.50;3.65;;;30.30;98.00;;;;;;7374103;19;20018;-58
2023/09/06 08:17:06;;;;;;;5.03;2.38;;;30.40;96.10;;;;;;7370460;19;20010;-58
2023/09/06 08:19:32;;;;;;;5.88;2.17;;;30.20;94.80;;;;;;7373995;19;20014;-58
2023/09/06 08:21:59;;;;;;;8.45;3.00;;;30.20;94.10;;;;;;7372360;19;20018;-58
2023/09/06 08:24:26;;;;;;;3.75;2.25;;;30.50;92.90;;;;;;7375591;19;20043;-63
2023/09/06 08:26:52;;;;;;;4.57;2.20;;;30.70;93.40;;;;;;7371435;19;20029;-68
2023/09/06 08:29:39;;;;;;;4.78;2.90;;;30.90;91.60;;;;;;7373344;19;20377;-59
2023/09/06 08:32:05;;;;;;;3.97;2.20;;;31.20;88.90;;;;;;7371640;19;20107;-59
2023/09/06 08:34:31;;;;;;;5.75;2.58;;;31.40;89.30;;;;;;7373330;19;20053;-60
2023/09/06 08:36:57;;;;;;;6.15;2.20;;;31.20;86.40;;;;;;7374746;19;20428;-59
2023/09/06 08:39:24;;;;;;;4.35;1.95;;;31.40;84.70;;;;;;7375558;19;20011;-58
2023/09/06 08:41:55;;;;;;;7.00;2.45;;;31.30;81.90;;;;;;7372103;19;20027;-58
2023/09/06 08:44:24;;;;;;;5.30;2.30;;;31.40;79.00;;;;;;7372280;19;20018;-59
2023/09/06 08:47:11;;;;;;;5.88;3.40;;;31.50;83.10;;;;;;7374178;19;20038;-59
2023/09/06 08:49:39;;;;;;;6.63;3.28;;;31.60;83.70;;;;;;7372574;19;20030;-59
2023/09/06 08:52:09;;;;;;;5.38;3.28;;;31.90;83.20;;;;;;7376173;19;20100;-59
2023/09/06 08:54:35;;;;;;;;;;;32.10;81.20;;;;;;7370569;19;20864;-67
2023/09/06 08:57:02;;;;;;;4.30;1.98;;;32.10;78.50;;;;;;7377418;19;20327;-68
2023/09/06 08:59:32;;;;;;;4.50;2.30;;;32.10;77.80;;;;;;7368509;19;20094;-69
2023/09/06 09:01:58;;;;;;;4.78;2.50;;;32.40;75.60;;;;;;7373387;19;20018;-68
2023/09/06 09:04:44;;;;;;;7.75;5.20;;;32.20;74.40;;;;;;7371662;19;20611;-68
2023/09/06 09:07:16;;;;;;;10.77;5.18;;;32.10;73.20;;;;;;7372211;19;20431;-68
2023/09/06 09:10:09;;;;;;;7.13;2.80;;;32.30;71.30;;;;;;7367726;19;21048;-68
2023/09/06 09:12:37;;;;;;;3.88;2.17;;;32.80;74.80;;;;;;7370842;19;20018;-68
2023/09/06 09:15:05;;;;;;;5.82;3.03;;;32.90;74.30;;;;;;7369314;19;20022;-69
2023/09/06 09:17:34;;;;;;;3.72;2.50;;;33.50;72.50;;;;;;7375043;19;20572;-68
2023/09/06 09:20:00;;;;;;;5.25;2.53;;;33.70;69.60;;;;;;7370622;19;20564;-69
2023/09/06 09:22:28;;;;;;;5.15;2.40;;;33.80;68.30;;;;;;7370423;19;20015;-69
2023/09/06 09:25:03;;;;;;;3.97;2.28;;;33.90;64.40;;;;;;7369139;19;20053;-68
2023/09/06 09:27:32;;;;;;;6.32;2.33;;;34.10;67.10;;;;;;7371528;19;20021;-68
2023/09/06 09:30:03;;;;;;;5.43;3.47;;;34.10;64.40;;;;;;7367635;19;20026;-68
2023/09/06 09:32:30;;;;;;;4.18;2.42;;;34.50;64.40;;;;;;7370215;19;20391;-69
2023/09/06 09:34:56;;;;;;;4.03;2.10;;;34.40;65.00;;;;;;7372770;19;20902;-67
2023/09/06 09:37:23;;;;;;;5.22;2.65;;;34.60;63.90;;;;;;7372477;19;20317;-68
2023/09/06 09:39:49;;;;;;;3.30;2.05;;;34.40;62.70;;;;;;7367374;19;20018;-68
2023/09/06 09:42:16;;;;;;;3.22;1.75;;;34.70;62.20;;;;;;7372706;19;20078;-67
2023/09/06 09:44:42;;;;;;;3.80;2.08;;;34.80;60.60;;;;;;7366488;19;20018;-67
2023/09/06 09:47:13;;;;;;;5.22;2.65;;;35.00;60.40;;;;;;7372521;19;20077;-68
2023/09/06 09:49:41;;;;;;;3.00;2.10;;;34.90;57.50;;;;;;7370551;19;20031;-69
2023/09/06 09:52:14;;;;;;;3.30;2.00;;;34.80;58.20;;;;;;7372518;19;20474;-68
2023/09/06 09:55:03;;;;;;;5.40;4.10;;;35.10;57.90;;;;;;7369454;19;20038;-68
2023/09/06 09:57:31;;;;;;;2.92;1.98;;;35.50;57.30;;;;;;7372835;19;20035;-68
2023/09/06 09:59:59;;;;;;;5.03;2.53;;;35.20;57.70;;;;;;7372035;19;20584;-58
2023/09/06 10:02:27;;;;;;;3.53;2.30;;;35.30;56.70;;;;;;7366186;19;20454;-59
2023/09/06 10:04:54;;;;;;;6.47;3.50;;;35.50;56.20;;;;;;7372030;19;20026;-58
2023/09/06 10:07:22;;;;;;;5.55;2.13;;;35.60;56.70;;;;;;7369111;19;20037;-58
2023/09/06 10:09:50;;;;;;;6.68;2.20;;;35.80;55.50;;;;;;7365376;19;20052;-58
2023/09/06 10:12:17;;;;;;;4.18;1.70;;;36.10;56.00;;;;;;7368601;19;20026;-68
2023/09/06 10:14:43;;;;;;;4.93;2.40;;;36.30;55.60;;;;;;7369996;19;20025;-67
2023/09/06 10:17:11;;;;;;;6.70;3.90;;;35.50;55.50;;;;;;7370552;19;20030;-68
2023/09/06 10:19:38;;;;;;;4.35;1.75;;;36.20;55.40;;;;;;7371365;19;20550;-66
2023/09/06 10:22:12;;;;;;;4.18;2.22;;;36.30;53.00;;;;;;7369326;19;20124;-59
2023/09/06 10:24:43;;;;;;;5.38;2.03;;;36.10;53.30;;;;;;7369678;19;20959;-59
2023/09/06 10:27:12;;;;;;;4.43;1.88;;;36.30;53.80;;;;;;7367805;19;20184;-58
2023/09/06 10:29:53;;;;;;;3.70;2.17;;;36.10;53.50;;;;;;7370439;19;20609;-59
2023/09/06 10:32:20;;;;;;;;;;;36.20;52.60;;;;;;7368973;19;20025;-58
2023/09/06 10:34:49;;;;;;;4.22;2.03;;;36.10;53.90;;;;;;7367227;19;20358;-58
2023/09/06 10:37:15;;;;;;;4.30;2.20;;;36.40;54.40;;;;;;7370355;19;20489;-58
2023/09/06 10:39:53;;;;;;;4.93;2.17;;;36.90;53.90;;;;;;7365702;19;20045;-58
2023/09/06 10:42:20;;;;;;;6.55;2.80;;;37.20;52.10;;;;;;7367461;19;20022;-59
2023/09/06 10:44:55;;;;;;;4.45;1.95;;;36.80;51.70;;;;;;7366482;19;20098;-59
2023/09/06 10:47:42;;;;;;;4.93;2.03;;;36.90;51.10;;;;;;7366460;19;20028;-58
2023/09/06 10:50:09;;;;;;;3.75;2.15;;;36.90;51.30;;;;;;7366786;19;20481;-58
2023/09/06 10:52:49;;;;;;;2.65;1.60;;;37.00;50.60;;;;;;7363821;19;20022;-58
2023/09/06 10:55:48;;;;;;;;;;;37.40;49.30;;;;;;7368014;19;20026;-58
2023/09/06 10:58:16;;;;;;;4.95;2.33;;;37.20;48.90;;;;;;7366746;19;19926;-58
2023/09/06 11:00:43;;;;;;;2.92;1.65;;;37.40;49.10;;;;;;7368184;19;20367;-58
2023/09/06 11:03:13;;;;;;;7.28;2.03;;;37.30;48.60;;;;;;7370391;19;20022;-58
2023/09/06 11:05:42;;;;;;;4.82;1.77;;;37.20;48.70;;;;;;7368543;19;20461;-58
2023/09/06 11:08:26;;;;;;;6.60;2.00;;;37.00;49.00;;;;;;7364673;19;20592;-59
2023/09/06 11:11:16;;;;;;;5.30;2.17;;;37.20;47.80;;;;;;7369882;19;20017;-59
2023/09/06 11:14:03;;;;;;;8.10;5.07;;;37.70;49.30;;;;;;7366273;19;20018;-58
2023/09/06 11:16:30;;;;;;;4.43;2.30;;;37.70;48.60;;;;;;7367029;19;20030;-59
2023/09/06 11:19:27;;;;;;;6.03;1.92;;;37.70;48.20;;;;;;7368013;19;20110;-61
2023/09/06 11:22:07;;;;;;;3.10;1.83;;;37.80;47.10;;;;;;7370733;19;20543;-59
2023/09/06 11:24:35;;;;;;;3.65;2.25;;;38.20;46.80;;;;;;7367562;19;20591;-59
2023/09/06 11:27:21;;;;;;;2.80;1.80;;;38.00;46.70;;;;;;7368029;19;20022;-59
2023/09/06 11:29:59;;;;;;;3.53;2.00;;;38.40;46.00;;;;;;7367420;19;20386;-59
2023/09/06 11:32:46;;;;;;;2.85;1.80;;;38.10;46.00;;;;;;7364468;19;20011;-58
2023/09/06 11:35:14;;;;;;;3.33;1.90;;;38.00;45.60;;;;;;7367005;19;20022;-58
2023/09/06 11:37:46;;;;;;;5.72;2.28;;;38.00;45.80;;;;;;7366838;19;20476;-59
2023/09/06 11:40:15;;;;;;;3.58;1.98;;;38.10;45.20;;;;;;7371265;19;20055;-58
2023/09/06 11:42:43;;;;;;;4.10;1.67;;;38.30;45.50;;;;;;7372056;19;20498;-58
2023/09/06 11:45:12;;;;;;;2.83;1.50;;;38.40;44.60;;;;;;7375110;19;20576;-58
2023/09/06 11:47:39;;;;;;;2.40;1.75;;;38.60;44.10;;;;;;7369695;19;20018;-58
2023/09/06 11:50:08;;;;;;;3.13;1.77;;;38.60;44.60;;;;;;7375873;19;20041;-58
2023/09/06 11:52:35;;;;;;;4.15;1.92;;;38.60;44.30;;;;;;7371290;19;20086;-59
2023/09/06 11:55:08;;;;;;;4.07;1.80;;;38.80;43.60;;;;;;7373980;19;20018;-59
2023/09/06 11:57:38;;;;;;;3.65;1.75;;;38.70;44.50;;;;;;7371035;19;20015;-69
2023/09/06 12:00:27;;;;;;;3.53;1.85;;;38.90;44.90;;;;;;7376332;19;20456;-69
2023/09/06 12:03:09;;;;;;;4.90;1.50;;;39.20;45.10;;;;;;7369849;19;20508;-69
2023/09/06 12:05:38;;;;;;;2.63;1.83;;;38.50;43.90;;;;;;7373646;19;20015;-68
2023/09/06 12:08:27;;;;;;;4.82;1.95;;;38.30;44.60;;;;;;7372977;19;20019;-71
2023/09/06 12:11:05;;;;;;;4.20;1.88;;;38.50;45.30;;;;;;7372745;19;20414;-69
2023/09/06 12:13:52;;;;;;;3.85;1.90;;;38.10;44.70;;;;;;7371775;19;20607;-69
2023/09/06 12:16:19;;;;;;;3.75;1.55;;;37.90;45.30;;;;;;7376342;19;20078;-69
2023/09/06 12:19:13;;;;;;;3.28;1.70;;;38.50;45.60;;;;;;7369995;19;20015;-69
2023/09/06 12:21:40;;;;;;;2.33;1.70;;;38.60;44.50;;;;;;7374009;19;20374;-69
2023/09/06 12:24:07;;;;;;;3.53;1.95;;;38.40;45.10;;;;;;7370353;19;20026;-69
2023/09/06 12:26:33;;;;;;;3.83;1.55;;;38.60;45.40;;;;;;7375125;19;20096;-69
2023/09/06 12:29:00;;;;;;;2.85;1.63;;;38.70;45.90;;;;;;7372546;19;20486;-68
2023/09/06 12:31:26;;;;;;;5.35;2.40;;;38.60;45.10;;;;;;7376561;19;20612;-68
2023/09/06 12:33:52;;;;;;;4.57;1.77;;;39.20;44.50;;;;;;7366621;19;20022;-68
2023/09/06 12:36:19;;;;;;;4.00;1.98;;;39.10;44.40;;;;;;7376425;19;20102;-69
2023/09/06 12:38:45;;;;;;;3.55;1.88;;;38.60;44.70;;;;;;7368732;19;20469;-69
2023/09/06 12:41:12;;;;;;;3.17;2.00;;;38.60;45.20;;;;;;7373980;19;20026;-68
2023/09/06 12:43:59;;;;;;;4.35;1.40;;;38.60;45.00;;;;;;7372476;19;20015;-69
2023/09/06 12:46:26;;;;;;;4.15;2.25;;;38.90;45.30;;;;;;7372890;19;20082;-69
2023/09/06 12:48:52;;;;;;;3.58;1.60;;;39.30;45.60;;;;;;7368253;19;20522;-69
2023/09/06 12:51:19;;;;;;;6.28;3.85;;;39.60;46.60;;;;;;7372254;19;20015;-69
2023/09/06 12:53:45;;;;;;;2.35;1.42;;;39.30;45.20;;;;;;7368900;19;20018;-69
2023/09/06 12:56:12;;;;;;;4.15;1.73;;;39.70;44.60;;;;;;7375416;19;20020;-69
2023/09/06 12:58:58;;;;;;;3.83;1.83;;;39.90;43.80;;;;;;7370478;19;20015;-68
2023/09/06 13:01:25;;;;;;;3.67;3.08;;;39.90;43.00;;;;;;7369412;19;20022;-68
2023/09/06 13:03:52;;;;;;;4.57;1.70;;;39.50;42.60;;;;;;7372652;19;20042;-69